Time;durP1;ratioP1;P1;durP2;ratioP2;P2;SDS_P1;SDS_P2;PMS_P1;PMS_P2;Temp;Humidity;BMP_temperature;BMP_pressure;BME280_temperature;BME280_humidity;BME280_pressure;Samples;Min_cycle;Max_cycle;Signal;HPM_P1;HPM_P2
2022/05/25 00:00:54;;;;;;;;;;;11.60;99.90;;;;;;8386466;28;19935;-74
2022/05/25 00:04:55;;;;;;;;;;;11.60;99.90;;;;;;8404535;27;19921;-74
2022/05/25 00:08:57;;;;;;;;;;;11.50;99.90;;;;;;8379310;28;19920;-74
2022/05/25 00:12:59;;;;;;;;;;;11.50;99.90;;;;;;8408436;28;19939;-74
2022/05/25 00:17:00;;;;;;;;;;;11.40;99.90;;;;;;8383542;28;19924;-74
2022/05/25 00:21:03;;;;;;;;;;;11.40;99.90;;;;;;8375412;28;19920;-74
2022/05/25 00:25:05;;;;;;;;;;;11.30;99.90;;;;;;8374306;28;19928;-75
2022/05/25 00:29:06;;;;;;;;;;;11.30;99.90;;;;;;8385019;28;19920;-75
2022/05/25 00:33:08;;;;;;;;;;;11.20;99.90;;;;;;8378163;28;20394;-74
2022/05/25 00:37:09;;;;;;;;;;;11.20;99.90;;;;;;8384243;28;19966;-74
2022/05/25 00:41:11;;;;;;;;;;;11.20;99.90;;;;;;8401728;27;19935;-74
2022/05/25 00:45:13;;;;;;;;;;;11.20;99.90;;;;;;8387672;28;19928;-74
2022/05/25 00:49:28;;;;;;;;;;;11.10;99.90;;;;;;8364170;28;20324;-74
2022/05/25 00:53:30;;;;;;;;;;;11.10;99.90;;;;;;8373167;28;19921;-74
2022/05/25 00:57:34;;;;;;;;;;;11.00;99.90;;;;;;8388508;28;20394;-74
2022/05/25 01:02:13;;;;;;;;;;;11.00;99.90;;;;;;8374669;28;19920;-74
2022/05/25 01:06:25;;;;;;;;;;;11.00;99.90;;;;;;8367786;28;19945;-74
2022/05/25 01:10:44;;;;;;;;;;;10.90;99.90;;;;;;8372505;28;19920;-74
2022/05/25 01:14:46;;;;;;;;;;;10.90;99.90;;;;;;8374105;28;20379;-74
2022/05/25 01:18:52;;;;;;;;;;;10.80;99.90;;;;;;8377132;28;19928;-74
2022/05/25 01:22:57;;;;;;;;;;;10.80;99.90;;;;;;8397907;28;19920;-74
2022/05/25 01:27:18;;;;;;;;;;;10.80;99.90;;;;;;8374799;28;19920;-74
2022/05/25 01:31:22;;;;;;;;;;;10.70;99.90;;;;;;8408985;28;20001;-75
2022/05/25 01:35:24;;;;;;;;;;;10.70;99.90;;;;;;8380555;28;19968;-75
2022/05/25 01:39:29;;;;;;;;;;;10.70;99.90;;;;;;8389036;28;19920;-75
2022/05/25 01:43:58;;;;;;;;;;;10.60;99.90;;;;;;8380516;28;20388;-74
2022/05/25 01:48:03;;;;;;;;;;;10.60;99.90;;;;;;8376428;28;19928;-74
2022/05/25 01:52:07;;;;;;;;;;;10.50;99.90;;;;;;8392398;28;19920;-74
2022/05/25 01:56:11;;;;;;;;;;;10.50;99.90;;;;;;8369163;28;19928;-74
2022/05/25 02:00:36;;;;;;;;;;;10.50;99.90;;;;;;8382120;28;20274;-74
2022/05/25 02:04:38;;;;;;;;;;;10.40;99.90;;;;;;8374256;28;19927;-74
2022/05/25 02:08:41;;;;;;;;;;;10.40;99.90;;;;;;8377509;28;19931;-74
2022/05/25 02:13:03;;;;;;;;;;;10.40;99.90;;;;;;8394917;28;19921;-74
2022/05/25 02:17:11;;;;;;;;;;;10.30;99.90;;;;;;8381382;28;19951;-75
2022/05/25 02:21:12;;;;;;;;;;;10.30;99.90;;;;;;8382700;28;19936;-74
2022/05/25 02:25:18;;;;;;;;;;;10.30;99.90;;;;;;8380052;28;20421;-74
2022/05/25 02:29:39;;;;;;;;;;;10.30;99.90;;;;;;8391288;28;20050;-75
2022/05/25 02:33:43;;;;;;;;;;;10.20;99.90;;;;;;8380010;28;19928;-74
2022/05/25 02:37:45;;;;;;;;;;;10.20;99.90;;;;;;8382416;28;19928;-75
2022/05/25 02:41:49;;;;;;;;;;;10.20;99.90;;;;;;8378935;28;19924;-74
2022/05/25 02:45:50;;;;;;;;;;;10.20;99.90;;;;;;8382866;28;19921;-74
2022/05/25 02:49:52;;;;;;;;;;;10.10;99.90;;;;;;8387034;28;19927;-74
2022/05/25 02:53:54;;;;;;;;;;;10.10;99.90;;;;;;8376955;28;20371;-74
2022/05/25 02:57:58;;;;;;;;;;;10.10;99.90;;;;;;8377559;28;20221;-74
2022/05/25 03:02:04;;;;;;;;;;;10.10;99.90;;;;;;8388190;28;20648;-74
2022/05/25 03:06:07;;;;;;;;;;;10.00;99.90;;;;;;8376936;28;19964;-75
2022/05/25 03:10:09;;;;;;;;;;;10.00;99.90;;;;;;8379911;28;20368;-74
2022/05/25 03:14:11;;;;;;;;;;;10.00;99.90;;;;;;8383016;28;20347;-74
2022/05/25 03:18:12;;;;;;;;;;;10.00;99.90;;;;;;8405474;27;20595;-74
2022/05/25 03:22:14;;;;;;;;;;;10.00;99.90;;;;;;8397652;28;19928;-74
2022/05/25 03:26:16;;;;;;;;;;;10.00;99.90;;;;;;8387806;28;20021;-74
2022/05/25 03:30:20;;;;;;;;;;;10.00;99.90;;;;;;8382202;28;19935;-74
2022/05/25 03:34:22;;;;;;;;;;;9.90;99.90;;;;;;8415557;27;20383;-74
2022/05/25 03:38:26;;;;;;;;;;;9.90;99.90;;;;;;8381442;28;19921;-75
2022/05/25 03:42:28;;;;;;;;;;;9.90;99.90;;;;;;8387870;28;19924;-74
2022/05/25 03:46:30;;;;;;;;;;;9.90;99.90;;;;;;8380883;28;19920;-74
2022/05/25 03:50:31;;;;;;;;;;;9.90;99.90;;;;;;8387847;28;19974;-74
2022/05/25 03:54:35;;;;;;;;;;;9.90;99.90;;;;;;8380441;28;19947;-74
2022/05/25 03:58:36;;;;;;;;;;;9.80;99.90;;;;;;8392814;28;19928;-74
2022/05/25 04:02:38;;;;;;;;;;;9.80;99.90;;;;;;8377888;28;19924;-74
2022/05/25 04:06:40;;;;;;;;;;;9.80;99.90;;;;;;8385294;28;19927;-75
2022/05/25 04:10:41;;;;;;;;;;;9.90;99.90;;;;;;8385013;28;19924;-74
2022/05/25 04:14:43;;;;;;;;;;;10.00;99.90;;;;;;8398775;28;19928;-74
2022/05/25 04:18:45;;;;;;;;;;;10.00;99.90;;;;;;8386021;28;19925;-75
2022/05/25 04:22:47;;;;;;;;;;;10.10;99.90;;;;;;8382042;28;19951;-74
2022/05/25 04:26:48;;;;;;;;;;;10.20;99.90;;;;;;8376423;28;20336;-74
2022/05/25 04:30:50;;;;;;;;;;;10.30;99.90;;;;;;8379710;28;19974;-75
2022/05/25 04:34:53;;;;;;;;;;;10.40;99.90;;;;;;8397859;28;19956;-74
2022/05/25 04:38:55;;;;;;;;;;;10.50;99.90;;;;;;8366304;28;19931;-74
2022/05/25 04:42:58;;;;;;;;;;;10.60;99.90;;;;;;8377953;28;20299;-75
2022/05/25 04:46:59;;;;;;;;;;;10.70;99.90;;;;;;8379788;28;20304;-74
2022/05/25 04:51:01;;;;;;;;;;;10.80;99.90;;;;;;8390520;28;19970;-74
2022/05/25 04:55:04;;;;;;;;;;;10.90;99.90;;;;;;8384854;28;19920;-75
2022/05/25 04:59:06;;;;;;;;;;;10.90;99.90;;;;;;8389288;28;19928;-75
2022/05/25 05:03:07;;;;;;;;;;;11.10;99.90;;;;;;8384159;28;19939;-74
2022/05/25 05:07:09;;;;;;;;;;;11.10;99.90;;;;;;8378024;28;19920;-74
2022/05/25 05:11:12;;;;;;;;;;;11.20;99.90;;;;;;8375506;28;19921;-75
2022/05/25 05:15:13;;;;;;;;;;;11.30;99.90;;;;;;8390008;28;19994;-74
2022/05/25 05:19:15;;;;;;;;;;;11.40;99.90;;;;;;8397844;28;20380;-74
2022/05/25 05:23:17;;;;;;;;;;;11.50;99.90;;;;;;8386720;28;19947;-74
2022/05/25 05:27:18;;;;;;;;;;;11.60;99.90;;;;;;8378138;28;20300;-74
2022/05/25 05:31:20;;;;;;;;;;;11.70;99.90;;;;;;8383235;28;19927;-74
2022/05/25 05:35:22;;;;;;;;;;;11.70;99.90;;;;;;8376802;28;19928;-74
2022/05/25 05:39:25;;;;;;;;;;;11.80;99.90;;;;;;8400895;28;19927;-74
2022/05/25 05:43:27;;;;;;;;;;;11.90;99.90;;;;;;8366485;28;20371;-75
2022/05/25 05:47:31;;;;;;;;;;;11.90;99.90;;;;;;8400456;28;21433;-73
2022/05/25 05:51:32;;;;;;;;;;;12.00;99.90;;;;;;8389577;28;19928;-73
2022/05/25 05:55:34;;;;;;;;;;;12.10;99.90;;;;;;8401432;28;19936;-73
2022/05/25 05:59:38;;;;;;;;;;;12.20;99.90;;;;;;8385523;28;20283;-73
2022/05/25 06:03:39;;;;;;;;;;;12.20;99.90;;;;;;8367005;28;19928;-74
2022/05/25 06:07:41;;;;;;;;;;;12.30;99.90;;;;;;8371068;28;20336;-73
2022/05/25 06:11:43;;;;;;;;;;;12.30;99.90;;;;;;8377721;28;19928;-73
2022/05/25 06:20:07;;;;;;;;;;;12.40;99.90;;;;;;8398259;28;19926;-73
2022/05/25 06:24:08;;;;;;;;;;;12.50;99.90;;;;;;8424579;28;19927;-73
2022/05/25 06:28:10;;;;;;;;;;;12.60;99.90;;;;;;8422625;28;19921;-74
2022/05/25 06:32:12;;;;;;;;;;;12.70;99.90;;;;;;8409462;28;20091;-73
2022/05/25 06:36:18;;;;;;;;;;;12.70;99.90;;;;;;8398706;28;19920;-73
2022/05/25 06:40:19;;;;;;;;;;;12.80;99.90;;;;;;8424027;27;19920;-74
2022/05/25 06:44:21;;;;;;;;;;;12.90;99.90;;;;;;8407321;28;19935;-73
2022/05/25 06:48:26;;;;;;;;;;;13.10;99.90;;;;;;8403468;28;19949;-73
2022/05/25 06:52:27;;;;;;;;;;;13.10;99.90;;;;;;8408495;28;20272;-74
2022/05/25 06:56:29;;;;;;;;;;;13.20;99.90;;;;;;8404314;28;20318;-74
2022/05/25 07:00:31;;;;;;;;;;;13.20;99.90;;;;;;8415437;28;20382;-73
2022/05/25 07:04:33;;;;;;;;;;;13.30;99.90;;;;;;8408441;28;19939;-73
2022/05/25 07:08:37;;;;;;;;;;;13.30;99.90;;;;;;8408798;28;19931;-73
2022/05/25 07:12:39;;;;;;;;;;;13.30;99.90;;;;;;8386705;28;19965;-74
2022/05/25 07:16:40;;;;;;;;;;;13.30;99.90;;;;;;8386709;28;19926;-74
2022/05/25 07:20:42;;;;;;;;;;;13.30;99.90;;;;;;8381276;28;20364;-73
2022/05/25 07:24:44;;;;;;;;;;;13.30;99.90;;;;;;8380215;28;20384;-73
2022/05/25 07:28:46;;;;;;;;;;;13.30;99.90;;;;;;8385523;28;19931;-73
2022/05/25 07:32:48;;;;;;;;;;;13.30;99.90;;;;;;8390979;28;20341;-74
2022/05/25 07:37:12;;;;;;;;;;;13.40;99.90;;;;;;8401606;28;19920;-73
2022/05/25 07:41:14;;;;;;;;;;;13.40;99.90;;;;;;8396413;27;20005;-74
2022/05/25 07:45:16;;;;;;;;;;;13.50;99.90;;;;;;8389086;28;19920;-73
2022/05/25 07:49:17;;;;;;;;;;;13.60;99.90;;;;;;8387404;28;19959;-73
2022/05/25 07:57:39;;;;;;;;;;;13.80;99.90;;;;;;8386345;28;19931;-74
2022/05/25 08:06:11;;;;;;;;;;;14.10;99.90;;;;;;8387395;28;20335;-73
2022/05/25 08:10:14;;;;;;;;;;;14.20;99.90;;;;;;8359169;28;20050;-73
2022/05/25 08:14:16;;;;;;;;;;;14.30;99.90;;;;;;8358426;28;20015;-73
2022/05/25 08:18:18;;;;;;;;;;;14.40;99.90;;;;;;8360161;28;19928;-73
2022/05/25 08:22:19;;;;;;;;;;;14.40;99.90;;;;;;8358125;28;19939;-73
2022/05/25 08:26:21;;;;;;;;;;;14.50;99.90;;;;;;8355048;28;19931;-73
2022/05/25 08:30:23;;;;;;;;;;;14.60;99.90;;;;;;8359439;28;19936;-74
2022/05/25 08:34:25;;;;;;;;;;;14.70;99.90;;;;;;8360074;28;20316;-73
2022/05/25 08:38:27;;;;;;;;;;;14.80;99.90;;;;;;8357422;28;19920;-74
2022/05/25 08:42:31;;;;;;;;;;;14.80;99.90;;;;;;8355683;28;19935;-74
2022/05/25 08:46:33;;;;;;;;;;;14.80;99.90;;;;;;8390737;27;19928;-74
2022/05/25 08:50:35;;;;;;;;;;;14.80;99.90;;;;;;8353733;28;20023;-72
2022/05/25 08:54:37;;;;;;;;;;;14.90;99.90;;;;;;8357941;28;20383;-74
2022/05/25 08:58:41;;;;;;;;;;;14.90;99.90;;;;;;8375270;28;19920;-73
2022/05/25 09:03:01;;;;;;;;;;;15.00;99.90;;;;;;8358021;28;19963;-73
2022/05/25 09:07:22;;;;;;;;;;;15.10;99.90;;;;;;8384900;27;19931;-74
2022/05/25 09:11:27;;;;;;;;;;;15.20;99.90;;;;;;8363057;28;19920;-74
2022/05/25 09:15:32;;;;;;;;;;;15.40;99.90;;;;;;8352606;28;20561;-73
2022/05/25 09:19:36;;;;;;;;;;;15.40;99.90;;;;;;8357172;28;20004;-74
2022/05/25 09:23:37;;;;;;;;;;;15.50;99.90;;;;;;8357877;28;19947;-74
2022/05/25 09:27:43;;;;;;;;;;;15.60;99.90;;;;;;8373061;28;19968;-75
2022/05/25 09:31:47;;;;;;;;;;;15.60;99.90;;;;;;8390337;28;19927;-74
2022/05/25 09:35:54;;;;;;;;;;;15.70;99.90;;;;;;8357118;28;20411;-74
2022/05/25 09:40:00;;;;;;;;;;;15.70;99.90;;;;;;8354047;28;19932;-74
2022/05/25 09:44:03;;;;;;;;;;;15.80;99.90;;;;;;8353574;28;19943;-74
2022/05/25 09:48:34;;;;;;;;;;;15.90;99.90;;;;;;8352801;28;19925;-74
2022/05/25 09:52:46;;;;;;;;;;;16.00;99.90;;;;;;8356622;28;19936;-74
2022/05/25 09:56:57;;;;;;;;;;;16.00;99.90;;;;;;8356487;28;20387;-74
2022/05/25 10:01:02;;;;;;;;;;;16.00;99.90;;;;;;8365469;28;19933;-74
2022/05/25 10:05:12;;;;;;;;;;;16.00;99.90;;;;;;8379771;28;20306;-74
2022/05/25 10:09:25;;;;;;;;;;;16.00;99.90;;;;;;8366530;28;19941;-74
2022/05/25 10:13:29;;;;;;;;;;;16.00;99.90;;;;;;8364185;28;19935;-74
2022/05/25 10:17:34;;;;;;;;;;;16.00;99.90;;;;;;8359477;28;19928;-73
2022/05/25 10:21:36;;;;;;;;;;;16.00;99.90;;;;;;8370207;28;20004;-74
2022/05/25 10:25:46;;;;;;;;;;;16.00;99.90;;;;;;8362191;28;19925;-74
2022/05/25 10:38:39;;;;;;;;;;;16.60;99.90;;;;;;8359871;28;19934;-74
2022/05/25 10:42:45;;;;;;;;;;;16.80;99.90;;;;;;8365633;28;19933;-75
2022/05/25 10:46:55;;;;;;;;;;;16.90;99.90;;;;;;8363001;28;20145;-74
2022/05/25 10:50:58;;;;;;;;;;;16.90;99.90;;;;;;8373576;27;19947;-74
2022/05/25 10:55:15;;;;;;;;;;;16.80;99.90;;;;;;8373093;28;19935;-74
2022/05/25 10:59:29;;;;;;;;;;;16.60;99.90;;;;;;8360763;28;19990;-75
2022/05/25 11:03:49;;;;;;;;;;;16.50;99.90;;;;;;8373254;28;19932;-75
2022/05/25 11:08:09;;;;;;;3.17;1.30;;;16.40;99.90;;;;;;8374989;28;19944;-74
2022/05/25 11:12:17;;;;;;;3.53;1.60;;;16.70;99.90;;;;;;8360329;28;20044;-73
2022/05/25 11:16:42;;;;;;;5.63;1.98;;;16.90;99.90;;;;;;8356521;28;20052;-74
2022/05/25 11:20:53;;;;;;;5.57;1.60;;;16.90;99.90;;;;;;8359675;28;20344;-73
2022/05/25 11:25:36;;;;;;;4.20;1.40;;;17.00;99.90;;;;;;8359540;28;20162;-74
2022/05/25 11:29:51;;;;;;;4.32;1.73;;;16.90;99.90;;;;;;8313862;28;20056;-74
2022/05/25 11:34:13;;;;;;;3.72;1.40;;;16.90;99.90;;;;;;8357618;28;20530;-74
2022/05/25 11:38:43;;;;;;;;;;;17.10;99.90;;;;;;8359395;28;19979;-74
2022/05/25 11:42:54;;;;;;;;;;;17.30;99.90;;;;;;8375101;28;20284;-74
2022/05/25 11:47:01;;;;;;;;;;;17.40;99.90;;;;;;8365547;28;20296;-75
2022/05/25 11:51:06;;;;;;;;;;;17.40;99.90;;;;;;8368374;28;20474;-74
2022/05/25 11:55:08;;;;;;;;;;;17.30;99.90;;;;;;8364969;28;19925;-74
2022/05/25 11:59:10;;;;;;;;;;;17.30;99.90;;;;;;8363376;28;19932;-74
2022/05/25 12:03:25;;;;;;;;;;;17.50;99.90;;;;;;8366856;28;19925;-73
2022/05/25 12:07:27;;;;;;;;;;;17.60;99.90;;;;;;8366237;28;19932;-75
2022/05/25 12:11:48;;;;;;;;;;;17.60;99.90;;;;;;8361642;28;19948;-74
2022/05/25 12:15:53;;;;;;;;;;;17.70;99.90;;;;;;8368390;28;19932;-75
2022/05/25 12:19:56;;;;;;;;;;;17.80;99.90;;;;;;8367603;28;19955;-75
2022/05/25 12:24:02;;;;;;;;;;;17.90;99.90;;;;;;8364831;28;19952;-74
2022/05/25 12:28:05;;;;;;;;;;;17.90;99.90;;;;;;8361807;28;19929;-74
2022/05/25 12:32:08;;;;;;;;;;;17.80;99.90;;;;;;8367856;28;19931;-74
2022/05/25 12:36:10;;;;;;;;;;;17.60;99.90;;;;;;8362566;28;19928;-73
2022/05/25 12:40:13;;;;;;;;;;;17.40;99.90;;;;;;8361006;28;20344;-74
2022/05/25 12:48:56;;;;;;;;;;;17.10;99.90;;;;;;8365953;28;20402;-74
2022/05/25 12:53:16;;;;;;;;;;;17.00;99.90;;;;;;8363793;28;19928;-74
2022/05/25 12:57:24;;;;;;;;;;;16.80;99.90;;;;;;8363882;28;19924;-73
2022/05/25 13:01:32;;;;;;;;;;;16.80;99.90;;;;;;8376318;28;19931;-74
2022/05/25 13:05:50;;;;;;;;;;;17.00;99.90;;;;;;8356264;28;19928;-74
2022/05/25 13:09:57;;;;;;;;;;;17.20;99.90;;;;;;8356900;28;19929;-74
2022/05/25 13:14:00;;;;;;;;;;;17.40;99.90;;;;;;8357527;28;20752;-74
2022/05/25 13:18:02;;;;;;;;;;;17.40;99.90;;;;;;8354930;28;20365;-73
2022/05/25 13:22:14;;;;;;;;;;;17.40;99.90;;;;;;8379939;28;19924;-73
2022/05/25 13:26:18;;;;;;;;;;;17.40;99.90;;;;;;8357649;28;20389;-73
2022/05/25 13:30:23;;;;;;;;;;;17.30;99.90;;;;;;8355062;28;20308;-74
2022/05/25 13:34:30;;;;;;;;;;;17.20;99.90;;;;;;8376932;28;19932;-74
2022/05/25 13:38:52;;;;;;;;;;;17.00;99.90;;;;;;8359933;28;20288;-74
2022/05/25 13:42:54;;;;;;;;;;;17.10;99.90;;;;;;8319877;28;1065990;-74
2022/05/25 13:46:57;;;;;;;;;;;17.10;99.90;;;;;;8357627;28;20003;-73
2022/05/25 13:50:58;;;;;;;;;;;17.30;99.90;;;;;;8364025;28;19932;-73
2022/05/25 13:55:04;;;;;;;;;;;17.40;99.90;;;;;;8358913;28;19936;-74
2022/05/25 13:59:08;;;;;;;;;;;17.50;99.90;;;;;;8372671;28;19952;-74
2022/05/25 14:03:12;;;;;;;;;;;17.50;99.90;;;;;;8393805;28;19927;-74
2022/05/25 14:07:32;;;;;;;;;;;17.60;99.90;;;;;;8358585;28;20339;-74
2022/05/25 14:11:36;;;;;;;;;;;17.60;99.90;;;;;;8357648;28;20212;-74
2022/05/25 14:15:38;;;;;;;;;;;17.60;99.90;;;;;;8356358;28;19951;-73
2022/05/25 14:19:47;;;;;;;;;;;17.60;99.90;;;;;;8339613;28;19925;-74
2022/05/25 14:23:49;;;;;;;;;;;17.60;99.90;;;;;;8355035;28;20188;-73
2022/05/25 14:27:51;;;;;;;;;;;17.60;99.90;;;;;;8363778;28;19935;-74
2022/05/25 14:31:54;;;;;;;;;;;17.60;99.90;;;;;;8370378;28;19927;-74
2022/05/25 14:35:59;;;;;;;;;;;17.60;99.90;;;;;;8363749;28;20344;-74
2022/05/25 14:40:03;;;;;;;;;;;17.60;99.90;;;;;;8364583;28;19922;-74
2022/05/25 14:44:05;;;;;;;;;;;17.60;99.90;;;;;;8362162;28;20070;-75
2022/05/25 14:48:09;;;;;;;;;;;17.50;99.90;;;;;;8363720;28;19949;-74
2022/05/25 14:52:13;;;;;;;;;;;17.60;99.90;;;;;;8363685;28;19920;-74
2022/05/25 14:56:20;;;;;;;;;;;17.60;99.90;;;;;;8361055;28;19963;-74
2022/05/25 15:00:22;;;;;;;;;;;17.50;99.90;;;;;;8364656;28;19925;-74
2022/05/25 15:04:31;;;;;;;;;;;17.50;99.90;;;;;;8369536;28;20012;-74
2022/05/25 15:08:38;;;;;;;;;;;17.50;99.90;;;;;;8377523;28;19921;-74
2022/05/25 15:12:46;;;;;;;;;;;17.40;99.90;;;;;;8357012;28;19928;-74
2022/05/25 15:21:27;;;;;;;;;;;17.30;99.90;;;;;;8366885;28;19933;-73
2022/05/25 15:25:50;;;;;;;;;;;17.20;99.90;;;;;;8359120;28;20015;-73
2022/05/25 15:29:54;;;;;;;;;;;17.10;99.90;;;;;;8366331;28;19921;-74
2022/05/25 15:33:56;;;;;;;;;;;17.10;99.90;;;;;;8378588;28;19951;-74
2022/05/25 15:38:06;;;;;;;;;;;17.00;99.90;;;;;;8366710;28;20012;-74
2022/05/25 15:42:08;;;;;;;;;;;16.90;99.90;;;;;;8382724;28;19962;-73
2022/05/25 15:46:14;;;;;;;;;;;16.80;99.90;;;;;;8360774;28;20291;-73
2022/05/25 15:50:16;;;;;;;;;;;16.80;99.90;;;;;;8366213;28;20379;-74
2022/05/25 15:54:21;;;;;;;;;;;16.60;99.90;;;;;;8360736;28;21149;-74
2022/05/25 15:58:25;;;;;;;;;;;16.40;99.90;;;;;;8368129;28;20026;-73
2022/05/25 16:02:31;;;;;;;;;;;16.40;99.90;;;;;;8362077;28;19960;-73
2022/05/25 16:06:33;;;;;;;;;;;16.50;99.90;;;;;;8360853;28;19920;-74
2022/05/25 16:10:35;;;;;;;;;;;16.50;99.90;;;;;;8365214;28;19940;-75
2022/05/25 16:14:38;;;;;;;;;;;16.60;99.90;;;;;;8365299;28;19920;-74
2022/05/25 16:18:40;;;;;;;;;;;16.60;99.90;;;;;;8360544;28;19964;-74
2022/05/25 16:22:43;;;;;;;;;;;16.60;99.90;;;;;;8364341;28;19932;-74
2022/05/25 16:26:45;;;;;;;;;;;16.60;99.90;;;;;;8358265;28;19924;-74
2022/05/25 16:30:47;;;;;;;;;;;16.40;99.90;;;;;;8361128;28;19928;-74
2022/05/25 16:34:49;;;;;;;;;;;16.40;99.90;;;;;;8373926;28;19947;-74
2022/05/25 16:38:52;;;;;;;;;;;16.40;99.90;;;;;;8365684;28;20360;-74
2022/05/25 16:42:55;;;;;;;;;;;16.30;99.90;;;;;;8359044;28;19927;-74
2022/05/25 16:46:57;;;;;;;;;;;16.30;99.90;;;;;;8362824;28;20402;-74
2022/05/25 16:50:58;;;;;;;;;;;16.20;99.90;;;;;;8366173;28;20335;-73
2022/05/25 16:55:00;;;;;;;;;;;16.10;99.90;;;;;;8363677;28;19936;-73
2022/05/25 16:59:03;;;;;;;;;;;15.90;99.90;;;;;;8359364;28;19932;-73
2022/05/25 17:03:05;;;;;;;;;;;15.90;99.90;;;;;;8356340;28;19931;-74
2022/05/25 17:07:07;;;;;;;2.97;1.10;;;15.80;99.90;;;;;;8359315;28;20048;-74
2022/05/25 17:11:11;;;;;;;3.95;1.20;;;15.80;99.90;;;;;;8355791;28;20059;-73
2022/05/25 17:15:13;;;;;;;3.80;1.27;;;15.70;99.90;;;;;;8360740;28;20487;-72
2022/05/25 17:23:36;;;;;;;2.40;0.88;;;15.60;99.90;;;;;;8373150;28;20064;-74
2022/05/25 17:27:38;;;;;;;3.15;1.30;;;15.60;99.90;;;;;;8371608;28;20049;-74
2022/05/25 17:31:39;;;;;;;4.40;1.20;;;15.70;99.90;;;;;;8370509;28;20056;-74
2022/05/25 17:44:25;;;;;;;3.42;1.13;;;15.60;99.90;;;;;;8361751;28;20505;-73
2022/05/25 17:48:27;;;;;;;3.47;1.10;;;15.60;99.90;;;;;;8374095;28;20060;-73
2022/05/25 17:52:29;;;;;;;3.70;1.17;;;15.60;99.90;;;;;;8358591;28;20042;-74
2022/05/25 17:56:31;;;;;;;2.22;0.90;;;15.60;99.90;;;;;;8352431;28;20051;-74
2022/05/25 18:00:33;;;;;;;2.53;0.90;;;15.70;99.90;;;;;;8388383;28;20041;-74
2022/05/25 18:04:35;;;;;;;5.45;1.35;;;15.60;99.90;;;;;;8358054;28;20368;-73
2022/05/25 18:08:37;;;;;;;4.70;1.08;;;15.60;99.90;;;;;;8359200;28;20060;-74
2022/05/25 18:12:40;;;;;;;;;;;15.50;99.90;;;;;;8358754;28;20477;-74
2022/05/25 18:16:45;;;;;;;2.78;1.00;;;15.40;99.90;;;;;;8365189;28;20180;-74
2022/05/25 18:20:47;;;;;;;6.25;1.80;;;15.30;99.90;;;;;;8369337;28;20140;-74
2022/05/25 18:24:49;;;;;;;6.47;1.38;;;15.20;99.90;;;;;;8358978;28;20051;-72
2022/05/25 18:28:51;;;;;;;4.53;1.35;;;15.20;99.90;;;;;;8360944;28;20105;-74
2022/05/25 18:32:53;;;;;;;4.00;1.20;;;15.00;99.90;;;;;;8357179;28;20037;-73
2022/05/25 18:36:59;;;;;;;4.28;1.30;;;15.00;99.90;;;;;;8376060;28;20045;-73
2022/05/25 18:41:01;;;;;;;3.97;1.33;;;15.00;99.90;;;;;;8363432;28;20055;-73
2022/05/25 18:45:07;;;;;;;3.58;1.17;;;15.00;99.90;;;;;;8356636;28;20052;-72
2022/05/25 18:49:09;;;;;;;3.60;1.20;;;14.90;99.90;;;;;;8359795;28;20393;-73
2022/05/25 18:53:11;;;;;;;;;;;14.80;99.90;;;;;;8373006;28;20458;-72
2022/05/25 18:57:13;;;;;;;;;;;14.70;99.90;;;;;;8353631;28;19920;-72
2022/05/25 19:01:16;;;;;;;;;;;14.60;99.90;;;;;;8365616;28;20317;-73
2022/05/25 19:05:18;;;;;;;;;;;14.50;99.90;;;;;;8364163;28;19920;-73
2022/05/25 19:09:23;;;;;;;;;;;14.50;99.90;;;;;;8392144;27;20327;-73
2022/05/25 19:13:25;;;;;;;;;;;14.40;99.90;;;;;;8378125;28;19935;-73
2022/05/25 19:17:27;;;;;;;;;;;14.30;99.90;;;;;;8356634;28;21247;-74
2022/05/25 19:21:30;;;;;;;;;;;14.20;99.90;;;;;;8376490;28;19925;-73
2022/05/25 19:25:37;;;;;;;;;;;14.10;99.90;;;;;;8346666;28;19935;-73
2022/05/25 19:29:39;;;;;;;;;;;14.00;99.90;;;;;;8357881;28;20029;-72
2022/05/25 19:33:45;;;;;;;;;;;13.90;99.90;;;;;;8354813;28;20753;-74
2022/05/25 19:37:48;;;;;;;;;;;13.80;99.90;;;;;;8353454;28;20101;-73
2022/05/25 19:41:52;;;;;;;;;;;13.80;99.90;;;;;;8355952;28;19944;-73
2022/05/25 19:45:53;;;;;;;;;;;13.80;99.90;;;;;;8355251;28;22046;-73
2022/05/25 19:54:35;;;;;;;;;;;13.80;99.90;;;;;;8289769;28;19921;-73
2022/05/25 19:58:38;;;;;;;;;;;13.80;99.90;;;;;;8317228;28;19924;-73
2022/05/25 20:02:39;;;;;;;;;;;13.90;99.90;;;;;;8352302;28;20292;-73
2022/05/25 20:06:41;;;;;;;;;;;13.90;99.90;;;;;;8355991;28;19971;-73
2022/05/25 20:10:43;;;;;;;;;;;14.00;99.90;;;;;;8354835;28;19970;-73
2022/05/25 20:14:45;;;;;;;;;;;14.10;99.90;;;;;;8379131;28;20445;-73
2022/05/25 20:18:46;;;;;;;;;;;14.10;99.90;;;;;;8371109;28;19929;-73
2022/05/25 20:22:49;;;;;;;;;;;14.10;99.90;;;;;;8355610;28;19921;-73
2022/05/25 20:26:51;;;;;;;;;;;14.20;99.90;;;;;;8357974;28;19936;-73
2022/05/25 20:30:52;;;;;;;;;;;14.20;99.90;;;;;;8372202;28;19929;-74
2022/05/25 20:34:58;;;;;;;;;;;14.30;99.90;;;;;;8358707;28;19921;-74
2022/05/25 20:38:59;;;;;;;;;;;14.30;99.90;;;;;;8356538;28;19924;-73
2022/05/25 20:43:01;;;;;;;;;;;14.30;99.90;;;;;;8355266;28;19921;-73
2022/05/25 20:47:04;;;;;;;;;;;14.40;99.90;;;;;;8353549;28;19928;-73
2022/05/25 20:51:06;;;;;;;;;;;14.40;99.90;;;;;;8353701;28;19989;-73
2022/05/25 20:55:10;;;;;;;;;;;14.50;99.90;;;;;;8375257;28;19927;-73
2022/05/25 20:59:14;;;;;;;;;;;14.50;99.90;;;;;;8344478;28;20386;-74
2022/05/25 21:03:18;;;;;;;;;;;14.50;99.90;;;;;;8372268;28;19989;-73
2022/05/25 21:07:20;;;;;;;;;;;14.60;99.90;;;;;;8391167;28;19920;-73
2022/05/25 21:11:22;;;;;;;;;;;14.60;99.90;;;;;;8399217;28;20287;-73
2022/05/25 21:15:23;;;;;;;;;;;14.70;99.90;;;;;;8399990;28;19925;-73
2022/05/25 21:19:25;;;;;;;;;;;14.70;99.90;;;;;;8396343;28;20322;-73
2022/05/25 21:23:27;;;;;;;;;;;14.70;99.90;;;;;;8381852;28;20287;-73
2022/05/25 21:27:28;;;;;;;;;;;14.80;99.90;;;;;;8392570;28;20220;-73
2022/05/25 21:35:51;;;;;;;;;;;14.80;99.90;;;;;;8365223;28;20344;-73
2022/05/25 21:39:53;;;;;;;;;;;14.80;99.90;;;;;;8400631;28;19920;-73
2022/05/25 21:43:56;;;;;;;;;;;14.90;99.90;;;;;;8405183;28;19932;-73
2022/05/25 21:52:44;;;;;;;;;;;14.90;99.90;;;;;;8387688;28;19924;-73
2022/05/25 21:56:46;;;;;;;;;;;14.90;99.90;;;;;;8382682;28;19920;-74
2022/05/25 22:00:52;;;;;;;;;;;14.90;99.90;;;;;;8404854;28;20300;-73
2022/05/25 22:04:54;;;;;;;;;;;14.80;99.90;;;;;;8374156;28;19924;-72
2022/05/25 22:08:58;;;;;;;;;;;14.70;99.90;;;;;;8390912;28;20109;-73
2022/05/25 22:13:00;;;;;;;;;;;14.60;99.90;;;;;;8407235;28;19927;-72
2022/05/25 22:17:02;;;;;;;;;;;14.60;99.90;;;;;;8383864;28;19939;-73
2022/05/25 22:21:04;;;;;;;;;;;14.50;99.90;;;;;;8387890;28;19935;-73
2022/05/25 22:25:06;;;;;;;;;;;14.50;99.90;;;;;;8386576;28;19920;-72
2022/05/25 22:29:08;;;;;;;;;;;14.50;99.90;;;;;;8398139;28;19943;-72
2022/05/25 22:33:10;;;;;;;;;;;14.60;99.90;;;;;;8406755;28;19929;-74
2022/05/25 22:37:11;;;;;;;;;;;14.60;99.90;;;;;;8405394;28;19920;-73
2022/05/25 22:41:13;;;;;;;;;;;14.60;99.90;;;;;;8399771;28;20296;-73
2022/05/25 22:45:15;;;;;;;;;;;14.60;99.90;;;;;;8407084;28;19920;-73
2022/05/25 22:49:17;;;;;;;;;;;14.60;99.90;;;;;;8397210;28;19947;-73
2022/05/25 22:53:19;;;;;;;;;;;14.70;99.90;;;;;;8410860;28;19928;-73
2022/05/25 22:57:20;;;;;;;;;;;14.70;99.90;;;;;;8383854;28;20027;-74
2022/05/25 23:01:23;;;;;;;;;;;14.70;99.90;;;;;;8408839;28;19920;-73
2022/05/25 23:05:25;;;;;;;9.85;4.90;;;14.70;99.90;;;;;;8390472;28;19934;-73
2022/05/25 23:09:27;;;;;;;;;;;14.70;99.90;;;;;;8395240;28;20080;-75
2022/05/25 23:13:29;;;;;;;;;;;14.70;99.90;;;;;;8397634;28;19920;-74
2022/05/25 23:17:31;;;;;;;;;;;14.80;99.90;;;;;;8411124;28;20288;-74
2022/05/25 23:21:32;;;;;;;;;;;14.80;99.90;;;;;;8417037;28;20367;-74
2022/05/25 23:25:34;;;;;;;;;;;14.80;99.90;;;;;;8393705;28;20279;-74
2022/05/25 23:29:36;;;;;;;;;;;14.80;99.90;;;;;;8400057;28;19920;-74
2022/05/25 23:33:38;;;;;;;;;;;14.80;99.90;;;;;;8411806;28;19920;-73
2022/05/25 23:37:40;;;;;;;;;;;14.80;99.90;;;;;;8401515;28;19946;-73
2022/05/25 23:46:02;;;;;;;;;;;14.80;99.90;;;;;;8413783;28;20258;-74
2022/05/25 23:50:05;;;;;;;;;;;14.80;99.90;;;;;;8402657;28;19928;-73
2022/05/25 23:54:07;;;;;;;;;;;14.70;99.90;;;;;;8402926;28;19920;-73
2022/05/25 23:58:09;;;;;;;;;;;14.70;99.90;;;;;;8410577;28;19928;-73
